sensor_id;sensor_type;location;lat;lon;timestamp;P1;durP1;ratioP1;P2;durP2;ratioP2
34459;SDS011;20704;51.260;22.558;2023-06-24T00:00:37;19.08;;;9.65;;
34459;SDS011;20704;51.260;22.558;2023-06-24T00:03:00;13.70;;;10.23;;
34459;SDS011;20704;51.260;22.558;2023-06-24T00:05:05;18.60;;;10.32;;
34459;SDS011;20704;51.260;22.558;2023-06-24T00:07:10;16.52;;;10.30;;
34459;SDS011;20704;51.260;22.558;2023-06-24T00:09:13;15.52;;;10.68;;
34459;SDS011;20704;51.260;22.558;2023-06-24T00:11:15;18.17;;;9.40;;
34459;SDS011;20704;51.260;22.558;2023-06-24T00:13:18;12.27;;;9.20;;
34459;SDS011;20704;51.260;22.558;2023-06-24T00:15:20;15.85;;;9.35;;
34459;SDS011;20704;51.260;22.558;2023-06-24T00:17:23;14.30;;;9.23;;
34459;SDS011;20704;51.260;22.558;2023-06-24T00:19:26;13.60;;;7.97;;
34459;SDS011;20704;51.260;22.558;2023-06-24T00:21:29;14.90;;;9.10;;
34459;SDS011;20704;51.260;22.558;2023-06-24T00:23:31;13.45;;;8.40;;
34459;SDS011;20704;51.260;22.558;2023-06-24T00:25:37;11.20;;;7.45;;
34459;SDS011;20704;51.260;22.558;2023-06-24T00:27:39;9.98;;;7.80;;
34459;SDS011;20704;51.260;22.558;2023-06-24T00:29:42;13.27;;;7.30;;
34459;SDS011;20704;51.260;22.558;2023-06-24T00:31:45;10.88;;;7.18;;
34459;SDS011;20704;51.260;22.558;2023-06-24T00:33:47;8.23;;;6.20;;
34459;SDS011;20704;51.260;22.558;2023-06-24T00:35:51;12.90;;;7.38;;
34459;SDS011;20704;51.260;22.558;2023-06-24T00:37:53;7.55;;;5.68;;
34459;SDS011;20704;51.260;22.558;2023-06-24T00:40:00;10.55;;;6.28;;
34459;SDS011;20704;51.260;22.558;2023-06-24T00:42:03;12.63;;;5.63;;
34459;SDS011;20704;51.260;22.558;2023-06-24T00:44:06;6.97;;;5.50;;
34459;SDS011;20704;51.260;22.558;2023-06-24T00:46:09;7.13;;;5.32;;
34459;SDS011;20704;51.260;22.558;2023-06-24T00:48:11;6.30;;;4.72;;
34459;SDS011;20704;51.260;22.558;2023-06-24T00:50:14;8.00;;;4.70;;
34459;SDS011;20704;51.260;22.558;2023-06-24T00:52:17;9.70;;;5.55;;
34459;SDS011;20704;51.260;22.558;2023-06-24T00:54:20;7.03;;;4.47;;
34459;SDS011;20704;51.260;22.558;2023-06-24T00:56:23;7.90;;;4.13;;
34459;SDS011;20704;51.260;22.558;2023-06-24T00:58:32;5.82;;;4.55;;
34459;SDS011;20704;51.260;22.558;2023-06-24T01:00:35;5.13;;;3.97;;
34459;SDS011;20704;51.260;22.558;2023-06-24T01:02:37;8.60;;;4.38;;
34459;SDS011;20704;51.260;22.558;2023-06-24T01:04:40;4.75;;;3.58;;
34459;SDS011;20704;51.260;22.558;2023-06-24T01:06:43;9.68;;;4.03;;
34459;SDS011;20704;51.260;22.558;2023-06-24T01:08:46;4.88;;;4.00;;
34459;SDS011;20704;51.260;22.558;2023-06-24T01:10:52;8.90;;;4.97;;
34459;SDS011;20704;51.260;22.558;2023-06-24T01:12:55;7.07;;;4.00;;
34459;SDS011;20704;51.260;22.558;2023-06-24T01:14:57;7.10;;;4.35;;
34459;SDS011;20704;51.260;22.558;2023-06-24T01:17:03;7.25;;;3.85;;
34459;SDS011;20704;51.260;22.558;2023-06-24T01:33:46;7.90;;;3.85;;
34459;SDS011;20704;51.260;22.558;2023-06-24T01:36:13;5.65;;;4.15;;
34459;SDS011;20704;51.260;22.558;2023-06-24T01:38:24;5.28;;;3.55;;
34459;SDS011;20704;51.260;22.558;2023-06-24T01:40:34;3.53;;;3.10;;
34459;SDS011;20704;51.260;22.558;2023-06-24T01:42:43;7.30;;;4.10;;
34459;SDS011;20704;51.260;22.558;2023-06-24T01:44:48;5.55;;;3.70;;
34459;SDS011;20704;51.260;22.558;2023-06-24T01:46:52;5.90;;;4.03;;
34459;SDS011;20704;51.260;22.558;2023-06-24T01:48:59;4.72;;;3.85;;
34459;SDS011;20704;51.260;22.558;2023-06-24T01:51:09;9.65;;;4.30;;
34459;SDS011;20704;51.260;22.558;2023-06-24T01:53:14;6.90;;;4.15;;
34459;SDS011;20704;51.260;22.558;2023-06-24T01:55:20;7.10;;;3.33;;
34459;SDS011;20704;51.260;22.558;2023-06-24T01:57:25;8.95;;;3.95;;
34459;SDS011;20704;51.260;22.558;2023-06-24T01:59:30;4.18;;;3.47;;
34459;SDS011;20704;51.260;22.558;2023-06-24T02:01:35;5.22;;;3.10;;
34459;SDS011;20704;51.260;22.558;2023-06-24T02:03:39;8.77;;;4.20;;
34459;SDS011;20704;51.260;22.558;2023-06-24T02:05:43;5.03;;;3.45;;
34459;SDS011;20704;51.260;22.558;2023-06-24T02:07:48;6.43;;;3.88;;
34459;SDS011;20704;51.260;22.558;2023-06-24T02:09:53;7.82;;;3.67;;
34459;SDS011;20704;51.260;22.558;2023-06-24T02:11:57;7.18;;;3.72;;
34459;SDS011;20704;51.260;22.558;2023-06-24T02:14:02;6.07;;;3.10;;
34459;SDS011;20704;51.260;22.558;2023-06-24T02:16:06;7.60;;;3.67;;
34459;SDS011;20704;51.260;22.558;2023-06-24T02:18:11;7.28;;;4.20;;
34459;SDS011;20704;51.260;22.558;2023-06-24T02:20:17;9.82;;;3.78;;
34459;SDS011;20704;51.260;22.558;2023-06-24T02:22:23;5.18;;;2.95;;
34459;SDS011;20704;51.260;22.558;2023-06-24T02:24:27;9.40;;;4.20;;
34459;SDS011;20704;51.260;22.558;2023-06-24T02:26:30;4.13;;;3.30;;
34459;SDS011;20704;51.260;22.558;2023-06-24T02:28:33;7.28;;;3.80;;
34459;SDS011;20704;51.260;22.558;2023-06-24T02:30:37;5.40;;;3.38;;
34459;SDS011;20704;51.260;22.558;2023-06-24T02:32:40;6.57;;;3.47;;
34459;SDS011;20704;51.260;22.558;2023-06-24T02:34:43;8.57;;;3.35;;
34459;SDS011;20704;51.260;22.558;2023-06-24T02:36:45;7.13;;;3.40;;
34459;SDS011;20704;51.260;22.558;2023-06-24T02:38:47;6.13;;;4.05;;
34459;SDS011;20704;51.260;22.558;2023-06-24T02:40:50;12.68;;;3.65;;
34459;SDS011;20704;51.260;22.558;2023-06-24T02:42:54;6.45;;;3.00;;
34459;SDS011;20704;51.260;22.558;2023-06-24T02:44:56;8.18;;;3.40;;
34459;SDS011;20704;51.260;22.558;2023-06-24T02:46:59;6.57;;;2.85;;
34459;SDS011;20704;51.260;22.558;2023-06-24T02:49:02;5.95;;;3.13;;
34459;SDS011;20704;51.260;22.558;2023-06-24T02:51:05;9.05;;;3.65;;
34459;SDS011;20704;51.260;22.558;2023-06-24T02:53:12;6.57;;;3.47;;
34459;SDS011;20704;51.260;22.558;2023-06-24T02:55:15;4.88;;;3.10;;
34459;SDS011;20704;51.260;22.558;2023-06-24T02:57:18;6.10;;;3.15;;
34459;SDS011;20704;51.260;22.558;2023-06-24T02:59:21;3.97;;;3.05;;
34459;SDS011;20704;51.260;22.558;2023-06-24T03:01:24;4.07;;;3.42;;
34459;SDS011;20704;51.260;22.558;2023-06-24T03:03:29;8.13;;;3.75;;
34459;SDS011;20704;51.260;22.558;2023-06-24T03:05:33;5.50;;;3.17;;
34459;SDS011;20704;51.260;22.558;2023-06-24T03:07:37;5.65;;;3.33;;
34459;SDS011;20704;51.260;22.558;2023-06-24T03:09:40;6.53;;;3.50;;
34459;SDS011;20704;51.260;22.558;2023-06-24T03:11:42;6.57;;;3.20;;
34459;SDS011;20704;51.260;22.558;2023-06-24T03:13:45;7.93;;;2.80;;
34459;SDS011;20704;51.260;22.558;2023-06-24T03:15:48;7.20;;;4.40;;
34459;SDS011;20704;51.260;22.558;2023-06-24T03:17:50;4.00;;;3.25;;
34459;SDS011;20704;51.260;22.558;2023-06-24T03:19:53;5.40;;;2.97;;
34459;SDS011;20704;51.260;22.558;2023-06-24T03:21:56;3.60;;;2.63;;
34459;SDS011;20704;51.260;22.558;2023-06-24T03:23:58;6.43;;;3.20;;
34459;SDS011;20704;51.260;22.558;2023-06-24T03:26:01;4.43;;;3.38;;
34459;SDS011;20704;51.260;22.558;2023-06-24T03:28:07;4.78;;;2.78;;
34459;SDS011;20704;51.260;22.558;2023-06-24T03:30:11;9.60;;;3.67;;
34459;SDS011;20704;51.260;22.558;2023-06-24T03:32:16;5.93;;;3.10;;
34459;SDS011;20704;51.260;22.558;2023-06-24T03:34:18;5.50;;;3.00;;
34459;SDS011;20704;51.260;22.558;2023-06-24T03:36:21;9.32;;;3.53;;
34459;SDS011;20704;51.260;22.558;2023-06-24T03:38:23;7.88;;;3.60;;
34459;SDS011;20704;51.260;22.558;2023-06-24T03:40:25;4.75;;;3.13;;
34459;SDS011;20704;51.260;22.558;2023-06-24T03:42:28;3.83;;;2.88;;
34459;SDS011;20704;51.260;22.558;2023-06-24T03:44:31;5.30;;;3.03;;
34459;SDS011;20704;51.260;22.558;2023-06-24T03:46:33;4.78;;;3.38;;
34459;SDS011;20704;51.260;22.558;2023-06-24T03:48:35;5.43;;;3.60;;
34459;SDS011;20704;51.260;22.558;2023-06-24T03:50:38;4.55;;;2.88;;
34459;SDS011;20704;51.260;22.558;2023-06-24T03:52:40;4.57;;;3.10;;
34459;SDS011;20704;51.260;22.558;2023-06-24T03:54:42;4.78;;;3.47;;
34459;SDS011;20704;51.260;22.558;2023-06-24T03:56:45;7.18;;;4.28;;
34459;SDS011;20704;51.260;22.558;2023-06-24T03:58:47;4.47;;;3.45;;
34459;SDS011;20704;51.260;22.558;2023-06-24T04:00:49;5.47;;;3.35;;
34459;SDS011;20704;51.260;22.558;2023-06-24T04:02:52;4.00;;;3.03;;
34459;SDS011;20704;51.260;22.558;2023-06-24T04:04:55;5.38;;;3.20;;
34459;SDS011;20704;51.260;22.558;2023-06-24T04:06:58;5.10;;;3.00;;
34459;SDS011;20704;51.260;22.558;2023-06-24T04:09:00;4.93;;;3.30;;
34459;SDS011;20704;51.260;22.558;2023-06-24T04:11:03;6.35;;;3.50;;
34459;SDS011;20704;51.260;22.558;2023-06-24T04:13:05;4.28;;;3.70;;
34459;SDS011;20704;51.260;22.558;2023-06-24T04:15:08;3.55;;;2.65;;
34459;SDS011;20704;51.260;22.558;2023-06-24T04:17:10;6.20;;;2.63;;
34459;SDS011;20704;51.260;22.558;2023-06-24T04:19:13;4.88;;;2.92;;
34459;SDS011;20704;51.260;22.558;2023-06-24T04:21:15;5.68;;;3.13;;
34459;SDS011;20704;51.260;22.558;2023-06-24T04:23:17;8.30;;;3.33;;
34459;SDS011;20704;51.260;22.558;2023-06-24T04:25:19;7.43;;;3.58;;
34459;SDS011;20704;51.260;22.558;2023-06-24T04:27:22;4.57;;;3.15;;
34459;SDS011;20704;51.260;22.558;2023-06-24T04:29:24;8.25;;;3.20;;
34459;SDS011;20704;51.260;22.558;2023-06-24T04:31:27;6.03;;;3.17;;
34459;SDS011;20704;51.260;22.558;2023-06-24T04:33:29;4.38;;;2.92;;
34459;SDS011;20704;51.260;22.558;2023-06-24T04:35:32;4.55;;;3.10;;
34459;SDS011;20704;51.260;22.558;2023-06-24T04:37:34;8.02;;;3.38;;
34459;SDS011;20704;51.260;22.558;2023-06-24T04:39:37;7.68;;;3.03;;
34459;SDS011;20704;51.260;22.558;2023-06-24T04:41:39;4.93;;;2.75;;
34459;SDS011;20704;51.260;22.558;2023-06-24T04:43:42;6.05;;;3.05;;
34459;SDS011;20704;51.260;22.558;2023-06-24T04:45:44;7.00;;;3.72;;
34459;SDS011;20704;51.260;22.558;2023-06-24T04:47:46;5.00;;;3.15;;
34459;SDS011;20704;51.260;22.558;2023-06-24T04:49:49;7.05;;;4.07;;
34459;SDS011;20704;51.260;22.558;2023-06-24T04:51:51;8.00;;;3.58;;
34459;SDS011;20704;51.260;22.558;2023-06-24T04:53:53;5.63;;;2.55;;
34459;SDS011;20704;51.260;22.558;2023-06-24T04:55:57;4.07;;;3.05;;
34459;SDS011;20704;51.260;22.558;2023-06-24T04:57:59;7.03;;;3.40;;
34459;SDS011;20704;51.260;22.558;2023-06-24T05:00:02;3.25;;;2.63;;
34459;SDS011;20704;51.260;22.558;2023-06-24T05:02:04;3.63;;;2.80;;
34459;SDS011;20704;51.260;22.558;2023-06-24T05:04:07;8.80;;;2.90;;
34459;SDS011;20704;51.260;22.558;2023-06-24T05:06:09;4.40;;;3.13;;
34459;SDS011;20704;51.260;22.558;2023-06-24T05:08:12;4.63;;;3.00;;
34459;SDS011;20704;51.260;22.558;2023-06-24T05:10:14;4.90;;;3.00;;
34459;SDS011;20704;51.260;22.558;2023-06-24T05:12:16;4.22;;;3.50;;
34459;SDS011;20704;51.260;22.558;2023-06-24T05:14:19;3.25;;;2.72;;
34459;SDS011;20704;51.260;22.558;2023-06-24T05:16:21;5.63;;;2.65;;
34459;SDS011;20704;51.260;22.558;2023-06-24T05:18:25;3.17;;;2.58;;
34459;SDS011;20704;51.260;22.558;2023-06-24T05:20:28;5.00;;;3.22;;
34459;SDS011;20704;51.260;22.558;2023-06-24T05:22:30;7.10;;;3.20;;
34459;SDS011;20704;51.260;22.558;2023-06-24T05:24:32;7.70;;;3.40;;
34459;SDS011;20704;51.260;22.558;2023-06-24T05:26:34;3.30;;;2.97;;
34459;SDS011;20704;51.260;22.558;2023-06-24T05:28:37;4.90;;;3.17;;
34459;SDS011;20704;51.260;22.558;2023-06-24T05:30:40;8.65;;;2.85;;
34459;SDS011;20704;51.260;22.558;2023-06-24T05:32:43;6.90;;;2.90;;
34459;SDS011;20704;51.260;22.558;2023-06-24T05:34:46;6.38;;;3.15;;
34459;SDS011;20704;51.260;22.558;2023-06-24T05:36:49;7.25;;;2.97;;
34459;SDS011;20704;51.260;22.558;2023-06-24T05:38:51;3.35;;;2.70;;
34459;SDS011;20704;51.260;22.558;2023-06-24T05:40:53;3.63;;;2.65;;
34459;SDS011;20704;51.260;22.558;2023-06-24T05:42:55;4.00;;;3.00;;
34459;SDS011;20704;51.260;22.558;2023-06-24T05:44:58;3.08;;;2.55;;
34459;SDS011;20704;51.260;22.558;2023-06-24T05:47:00;3.72;;;3.08;;
34459;SDS011;20704;51.260;22.558;2023-06-24T05:49:03;4.53;;;3.38;;
34459;SDS011;20704;51.260;22.558;2023-06-24T05:51:05;6.07;;;3.08;;
34459;SDS011;20704;51.260;22.558;2023-06-24T05:53:08;3.30;;;2.83;;
34459;SDS011;20704;51.260;22.558;2023-06-24T05:55:10;5.03;;;3.28;;
34459;SDS011;20704;51.260;22.558;2023-06-24T05:57:15;4.15;;;3.75;;
34459;SDS011;20704;51.260;22.558;2023-06-24T05:59:18;4.05;;;3.17;;
34459;SDS011;20704;51.260;22.558;2023-06-24T06:01:20;4.05;;;3.10;;
34459;SDS011;20704;51.260;22.558;2023-06-24T06:03:22;7.13;;;2.92;;
34459;SDS011;20704;51.260;22.558;2023-06-24T06:05:25;4.65;;;3.08;;
34459;SDS011;20704;51.260;22.558;2023-06-24T06:07:27;6.70;;;3.13;;
34459;SDS011;20704;51.260;22.558;2023-06-24T06:09:30;3.83;;;3.00;;
34459;SDS011;20704;51.260;22.558;2023-06-24T06:11:32;5.55;;;2.92;;
34459;SDS011;20704;51.260;22.558;2023-06-24T06:13:34;3.55;;;2.80;;
34459;SDS011;20704;51.260;22.558;2023-06-24T06:15:37;7.55;;;2.67;;
34459;SDS011;20704;51.260;22.558;2023-06-24T06:17:39;4.93;;;2.63;;
34459;SDS011;20704;51.260;22.558;2023-06-24T06:19:42;5.47;;;2.70;;
34459;SDS011;20704;51.260;22.558;2023-06-24T06:21:51;5.78;;;2.90;;
34459;SDS011;20704;51.260;22.558;2023-06-24T06:23:53;4.03;;;2.85;;
34459;SDS011;20704;51.260;22.558;2023-06-24T06:25:56;3.30;;;2.50;;
34459;SDS011;20704;51.260;22.558;2023-06-24T06:27:58;5.32;;;2.83;;
34459;SDS011;20704;51.260;22.558;2023-06-24T06:30:01;3.70;;;2.97;;
34459;SDS011;20704;51.260;22.558;2023-06-24T06:32:05;3.22;;;2.60;;
34459;SDS011;20704;51.260;22.558;2023-06-24T06:34:07;4.00;;;2.85;;
34459;SDS011;20704;51.260;22.558;2023-06-24T06:36:10;3.13;;;2.55;;
34459;SDS011;20704;51.260;22.558;2023-06-24T06:38:13;4.00;;;2.58;;
34459;SDS011;20704;51.260;22.558;2023-06-24T06:40:15;3.38;;;3.00;;
34459;SDS011;20704;51.260;22.558;2023-06-24T06:42:18;4.88;;;2.60;;
34459;SDS011;20704;51.260;22.558;2023-06-24T06:44:20;6.95;;;3.40;;
34459;SDS011;20704;51.260;22.558;2023-06-24T06:46:23;4.47;;;2.50;;
34459;SDS011;20704;51.260;22.558;2023-06-24T06:48:25;3.08;;;2.47;;
34459;SDS011;20704;51.260;22.558;2023-06-24T06:50:27;4.13;;;2.20;;
34459;SDS011;20704;51.260;22.558;2023-06-24T06:52:30;3.50;;;2.42;;
34459;SDS011;20704;51.260;22.558;2023-06-24T06:54:32;4.07;;;2.60;;
34459;SDS011;20704;51.260;22.558;2023-06-24T06:56:34;4.32;;;2.65;;
34459;SDS011;20704;51.260;22.558;2023-06-24T06:58:37;3.25;;;2.58;;
34459;SDS011;20704;51.260;22.558;2023-06-24T07:00:40;4.28;;;2.58;;
34459;SDS011;20704;51.260;22.558;2023-06-24T07:02:43;3.90;;;2.67;;
34459;SDS011;20704;51.260;22.558;2023-06-24T07:04:46;5.20;;;2.47;;
34459;SDS011;20704;51.260;22.558;2023-06-24T07:06:49;2.97;;;2.33;;
34459;SDS011;20704;51.260;22.558;2023-06-24T07:08:52;6.63;;;2.85;;
34459;SDS011;20704;51.260;22.558;2023-06-24T07:10:55;3.17;;;2.40;;
34459;SDS011;20704;51.260;22.558;2023-06-24T07:12:58;3.67;;;2.88;;
34459;SDS011;20704;51.260;22.558;2023-06-24T07:15:02;4.03;;;3.20;;
34459;SDS011;20704;51.260;22.558;2023-06-24T07:17:05;3.45;;;2.33;;
34459;SDS011;20704;51.260;22.558;2023-06-24T07:19:07;3.28;;;2.60;;
34459;SDS011;20704;51.260;22.558;2023-06-24T07:21:10;3.72;;;2.58;;
34459;SDS011;20704;51.260;22.558;2023-06-24T07:23:13;3.10;;;2.47;;
34459;SDS011;20704;51.260;22.558;2023-06-24T07:25:15;3.50;;;2.55;;
34459;SDS011;20704;51.260;22.558;2023-06-24T07:27:18;2.80;;;2.38;;
34459;SDS011;20704;51.260;22.558;2023-06-24T07:29:21;6.90;;;2.55;;
34459;SDS011;20704;51.260;22.558;2023-06-24T07:31:24;3.75;;;2.55;;
34459;SDS011;20704;51.260;22.558;2023-06-24T07:33:26;4.15;;;2.60;;
34459;SDS011;20704;51.260;22.558;2023-06-24T07:35:30;7.90;;;2.80;;
34459;SDS011;20704;51.260;22.558;2023-06-24T07:37:34;3.33;;;2.42;;
34459;SDS011;20704;51.260;22.558;2023-06-24T07:39:37;2.80;;;2.50;;
34459;SDS011;20704;51.260;22.558;2023-06-24T07:41:40;3.50;;;2.63;;
34459;SDS011;20704;51.260;22.558;2023-06-24T07:43:44;4.55;;;2.65;;
34459;SDS011;20704;51.260;22.558;2023-06-24T07:45:46;2.65;;;2.40;;
34459;SDS011;20704;51.260;22.558;2023-06-24T07:47:49;3.30;;;2.60;;
34459;SDS011;20704;51.260;22.558;2023-06-24T07:49:52;2.58;;;2.38;;
34459;SDS011;20704;51.260;22.558;2023-06-24T07:51:55;3.17;;;2.88;;
34459;SDS011;20704;51.260;22.558;2023-06-24T07:53:57;4.93;;;3.33;;
34459;SDS011;20704;51.260;22.558;2023-06-24T07:56:00;6.43;;;2.53;;
34459;SDS011;20704;51.260;22.558;2023-06-24T07:58:02;4.78;;;3.08;;
34459;SDS011;20704;51.260;22.558;2023-06-24T08:00:08;3.90;;;3.00;;
34459;SDS011;20704;51.260;22.558;2023-06-24T08:02:12;4.00;;;2.70;;
34459;SDS011;20704;51.260;22.558;2023-06-24T08:04:15;4.80;;;3.50;;
34459;SDS011;20704;51.260;22.558;2023-06-24T08:06:18;4.07;;;3.28;;
34459;SDS011;20704;51.260;22.558;2023-06-24T08:08:21;3.42;;;2.47;;
34459;SDS011;20704;51.260;22.558;2023-06-24T08:10:23;4.53;;;2.38;;
34459;SDS011;20704;51.260;22.558;2023-06-24T08:12:26;3.10;;;2.80;;
34459;SDS011;20704;51.260;22.558;2023-06-24T08:14:29;3.63;;;2.60;;
34459;SDS011;20704;51.260;22.558;2023-06-24T08:16:32;4.25;;;2.08;;
34459;SDS011;20704;51.260;22.558;2023-06-24T08:18:34;3.78;;;2.88;;
34459;SDS011;20704;51.260;22.558;2023-06-24T08:20:37;11.27;;;4.47;;
34459;SDS011;20704;51.260;22.558;2023-06-24T08:22:39;3.63;;;2.45;;
34459;SDS011;20704;51.260;22.558;2023-06-24T08:24:42;8.93;;;2.55;;
34459;SDS011;20704;51.260;22.558;2023-06-24T08:26:45;5.88;;;2.63;;
34459;SDS011;20704;51.260;22.558;2023-06-24T08:28:47;2.60;;;2.30;;
34459;SDS011;20704;51.260;22.558;2023-06-24T08:30:50;2.88;;;2.17;;
34459;SDS011;20704;51.260;22.558;2023-06-24T08:32:53;4.53;;;2.30;;
34459;SDS011;20704;51.260;22.558;2023-06-24T08:34:56;4.55;;;3.13;;
34459;SDS011;20704;51.260;22.558;2023-06-24T08:36:59;3.30;;;2.92;;
34459;SDS011;20704;51.260;22.558;2023-06-24T08:39:01;4.10;;;2.60;;
34459;SDS011;20704;51.260;22.558;2023-06-24T08:41:04;5.55;;;2.45;;
34459;SDS011;20704;51.260;22.558;2023-06-24T08:43:07;9.55;;;2.65;;
34459;SDS011;20704;51.260;22.558;2023-06-24T08:45:10;4.57;;;2.40;;
34459;SDS011;20704;51.260;22.558;2023-06-24T08:47:13;2.17;;;1.80;;
34459;SDS011;20704;51.260;22.558;2023-06-24T08:51:29;3.78;;;1.85;;
34459;SDS011;20704;51.260;22.558;2023-06-24T08:53:37;6.65;;;2.35;;
34459;SDS011;20704;51.260;22.558;2023-06-24T08:55:41;3.25;;;2.95;;
34459;SDS011;20704;51.260;22.558;2023-06-24T08:57:46;2.20;;;1.88;;
34459;SDS011;20704;51.260;22.558;2023-06-24T08:59:48;5.35;;;2.10;;
34459;SDS011;20704;51.260;22.558;2023-06-24T09:01:51;4.20;;;2.10;;
34459;SDS011;20704;51.260;22.558;2023-06-24T09:03:54;2.60;;;2.05;;
34459;SDS011;20704;51.260;22.558;2023-06-24T09:05:57;6.95;;;2.60;;
34459;SDS011;20704;51.260;22.558;2023-06-24T09:07:59;4.00;;;2.33;;
34459;SDS011;20704;51.260;22.558;2023-06-24T09:10:02;2.42;;;2.22;;
34459;SDS011;20704;51.260;22.558;2023-06-24T09:12:07;5.32;;;2.72;;
34459;SDS011;20704;51.260;22.558;2023-06-24T09:14:16;2.83;;;2.03;;
34459;SDS011;20704;51.260;22.558;2023-06-24T09:16:19;12.35;;;2.53;;
34459;SDS011;20704;51.260;22.558;2023-06-24T09:18:22;3.13;;;1.90;;
34459;SDS011;20704;51.260;22.558;2023-06-24T09:20:33;3.40;;;2.00;;
34459;SDS011;20704;51.260;22.558;2023-06-24T09:22:41;5.32;;;1.92;;
34459;SDS011;20704;51.260;22.558;2023-06-24T09:24:45;3.85;;;2.00;;
34459;SDS011;20704;51.260;22.558;2023-06-24T09:26:48;2.55;;;2.00;;
34459;SDS011;20704;51.260;22.558;2023-06-24T09:28:51;2.22;;;1.92;;
34459;SDS011;20704;51.260;22.558;2023-06-24T09:31:06;4.40;;;2.40;;
34459;SDS011;20704;51.260;22.558;2023-06-24T09:33:21;3.80;;;2.55;;
34459;SDS011;20704;51.260;22.558;2023-06-24T09:35:24;3.55;;;1.88;;
34459;SDS011;20704;51.260;22.558;2023-06-24T09:37:27;3.00;;;2.42;;
34459;SDS011;20704;51.260;22.558;2023-06-24T09:39:37;5.55;;;2.45;;
34459;SDS011;20704;51.260;22.558;2023-06-24T09:41:41;2.30;;;1.70;;
34459;SDS011;20704;51.260;22.558;2023-06-24T09:43:44;6.38;;;2.05;;
34459;SDS011;20704;51.260;22.558;2023-06-24T09:45:48;5.93;;;2.45;;
34459;SDS011;20704;51.260;22.558;2023-06-24T09:47:52;4.22;;;2.00;;
34459;SDS011;20704;51.260;22.558;2023-06-24T09:49:55;6.53;;;2.25;;
34459;SDS011;20704;51.260;22.558;2023-06-24T09:51:58;3.42;;;1.90;;
34459;SDS011;20704;51.260;22.558;2023-06-24T09:54:04;2.40;;;1.92;;
34459;SDS011;20704;51.260;22.558;2023-06-24T09:56:08;2.15;;;1.85;;
34459;SDS011;20704;51.260;22.558;2023-06-24T09:58:13;3.88;;;2.22;;
34459;SDS011;20704;51.260;22.558;2023-06-24T10:00:18;3.17;;;2.13;;
34459;SDS011;20704;51.260;22.558;2023-06-24T10:02:22;2.97;;;2.10;;
34459;SDS011;20704;51.260;22.558;2023-06-24T10:04:26;5.05;;;2.13;;
34459;SDS011;20704;51.260;22.558;2023-06-24T10:06:29;2.20;;;1.80;;
34459;SDS011;20704;51.260;22.558;2023-06-24T10:08:32;2.47;;;1.88;;
34459;SDS011;20704;51.260;22.558;2023-06-24T10:10:35;5.72;;;2.58;;
34459;SDS011;20704;51.260;22.558;2023-06-24T10:12:40;8.55;;;3.05;;
34459;SDS011;20704;51.260;22.558;2023-06-24T10:14:42;2.85;;;2.00;;
34459;SDS011;20704;51.260;22.558;2023-06-24T10:16:45;4.68;;;2.70;;
34459;SDS011;20704;51.260;22.558;2023-06-24T10:18:48;3.55;;;1.98;;
34459;SDS011;20704;51.260;22.558;2023-06-24T10:20:51;2.88;;;1.77;;
34459;SDS011;20704;51.260;22.558;2023-06-24T10:22:53;3.03;;;2.15;;
34459;SDS011;20704;51.260;22.558;2023-06-24T10:24:58;4.18;;;2.20;;
34459;SDS011;20704;51.260;22.558;2023-06-24T10:27:02;2.28;;;1.77;;
34459;SDS011;20704;51.260;22.558;2023-06-24T10:31:10;2.85;;;2.05;;
34459;SDS011;20704;51.260;22.558;2023-06-24T10:33:13;3.08;;;1.90;;
34459;SDS011;20704;51.260;22.558;2023-06-24T10:35:25;2.67;;;1.83;;
34459;SDS011;20704;51.260;22.558;2023-06-24T10:37:32;5.07;;;1.95;;
34459;SDS011;20704;51.260;22.558;2023-06-24T10:42:16;2.10;;;1.60;;
34459;SDS011;20704;51.260;22.558;2023-06-24T10:44:44;3.15;;;2.03;;
34459;SDS011;20704;51.260;22.558;2023-06-24T10:46:53;1.75;;;1.50;;
34459;SDS011;20704;51.260;22.558;2023-06-24T10:48:56;2.60;;;1.90;;
34459;SDS011;20704;51.260;22.558;2023-06-24T10:50:59;3.10;;;2.00;;
34459;SDS011;20704;51.260;22.558;2023-06-24T10:53:01;2.70;;;1.95;;
34459;SDS011;20704;51.260;22.558;2023-06-24T10:55:10;3.70;;;1.63;;
34459;SDS011;20704;51.260;22.558;2023-06-24T10:57:20;3.28;;;1.73;;
34459;SDS011;20704;51.260;22.558;2023-06-24T10:59:24;4.80;;;2.00;;
34459;SDS011;20704;51.260;22.558;2023-06-24T11:01:27;3.20;;;1.70;;
34459;SDS011;20704;51.260;22.558;2023-06-24T11:03:33;2.05;;;1.63;;
34459;SDS011;20704;51.260;22.558;2023-06-24T11:05:38;2.28;;;1.98;;
34459;SDS011;20704;51.260;22.558;2023-06-24T11:07:41;2.53;;;1.67;;
34459;SDS011;20704;51.260;22.558;2023-06-24T11:09:57;1.70;;;1.40;;
34459;SDS011;20704;51.260;22.558;2023-06-24T11:12:04;3.08;;;2.00;;
34459;SDS011;20704;51.260;22.558;2023-06-24T11:14:07;3.80;;;1.88;;
34459;SDS011;20704;51.260;22.558;2023-06-24T11:16:09;2.22;;;1.83;;
34459;SDS011;20704;51.260;22.558;2023-06-24T11:18:12;3.00;;;1.95;;
34459;SDS011;20704;51.260;22.558;2023-06-24T11:20:15;3.30;;;2.35;;
34459;SDS011;20704;51.260;22.558;2023-06-24T11:22:18;1.75;;;1.50;;
34459;SDS011;20704;51.260;22.558;2023-06-24T11:24:22;1.83;;;1.50;;
34459;SDS011;20704;51.260;22.558;2023-06-24T11:26:24;2.20;;;1.63;;
34459;SDS011;20704;51.260;22.558;2023-06-24T11:28:27;2.25;;;1.67;;
34459;SDS011;20704;51.260;22.558;2023-06-24T11:30:34;2.85;;;2.00;;
34459;SDS011;20704;51.260;22.558;2023-06-24T11:32:37;6.22;;;2.88;;
34459;SDS011;20704;51.260;22.558;2023-06-24T11:34:41;12.88;;;3.38;;
34459;SDS011;20704;51.260;22.558;2023-06-24T11:36:44;3.13;;;2.00;;
34459;SDS011;20704;51.260;22.558;2023-06-24T11:38:46;2.00;;;1.67;;
34459;SDS011;20704;51.260;22.558;2023-06-24T11:40:49;3.05;;;1.90;;
34459;SDS011;20704;51.260;22.558;2023-06-24T11:42:51;1.77;;;1.65;;
34459;SDS011;20704;51.260;22.558;2023-06-24T11:44:58;2.00;;;1.55;;
34459;SDS011;20704;51.260;22.558;2023-06-24T11:47:16;2.75;;;1.92;;
34459;SDS011;20704;51.260;22.558;2023-06-24T11:49:19;4.30;;;2.17;;
34459;SDS011;20704;51.260;22.558;2023-06-24T11:51:23;4.28;;;2.47;;
34459;SDS011;20704;51.260;22.558;2023-06-24T11:53:29;3.08;;;2.17;;
34459;SDS011;20704;51.260;22.558;2023-06-24T11:55:47;2.10;;;1.70;;
34459;SDS011;20704;51.260;22.558;2023-06-24T11:57:55;2.95;;;2.20;;
34459;SDS011;20704;51.260;22.558;2023-06-24T12:00:03;2.67;;;2.38;;
34459;SDS011;20704;51.260;22.558;2023-06-24T12:02:14;5.35;;;2.72;;
34459;SDS011;20704;51.260;22.558;2023-06-24T12:04:17;6.20;;;2.60;;
34459;SDS011;20704;51.260;22.558;2023-06-24T12:06:20;5.57;;;3.15;;
34459;SDS011;20704;51.260;22.558;2023-06-24T12:08:22;3.05;;;2.42;;
34459;SDS011;20704;51.260;22.558;2023-06-24T12:10:27;4.63;;;2.92;;
34459;SDS011;20704;51.260;22.558;2023-06-24T12:12:30;3.10;;;2.13;;
34459;SDS011;20704;51.260;22.558;2023-06-24T12:14:33;4.50;;;2.10;;
34459;SDS011;20704;51.260;22.558;2023-06-24T12:16:35;4.13;;;2.05;;
34459;SDS011;20704;51.260;22.558;2023-06-24T12:18:38;3.55;;;1.73;;
34459;SDS011;20704;51.260;22.558;2023-06-24T12:20:40;4.53;;;2.33;;
34459;SDS011;20704;51.260;22.558;2023-06-24T12:22:46;2.83;;;2.03;;
34459;SDS011;20704;51.260;22.558;2023-06-24T12:24:50;7.82;;;2.60;;
34459;SDS011;20704;51.260;22.558;2023-06-24T12:26:53;3.05;;;2.08;;
34459;SDS011;20704;51.260;22.558;2023-06-24T12:28:58;5.85;;;2.58;;
34459;SDS011;20704;51.260;22.558;2023-06-24T12:31:03;4.43;;;2.83;;
34459;SDS011;20704;51.260;22.558;2023-06-24T12:33:08;3.20;;;1.88;;
34459;SDS011;20704;51.260;22.558;2023-06-24T12:35:11;4.50;;;2.00;;